Time;durP1;ratioP1;P1;durP2;ratioP2;P2;SDS_P1;SDS_P2;PMS_P1;PMS_P2;Temp;Humidity;BMP_temperature;BMP_pressure;BME280_temperature;BME280_humidity;BME280_pressure;Samples;Min_cycle;Max_cycle;Signal;HPM_P1;HPM_P2
2023/05/14 00:01:22;;;;;;;5.20;3.60;;;11.40;99.90;;;;;;5109533;28;20641;-68
2023/05/14 00:03:49;;;;;;;3.70;2.83;;;11.40;99.90;;;;;;5109984;28;20614;-70
2023/05/14 00:06:15;;;;;;;5.00;4.00;;;11.30;99.90;;;;;;5109750;28;20651;-70
2023/05/14 00:08:43;;;;;;;3.90;3.47;;;11.30;99.90;;;;;;5109687;28;20627;-69
2023/05/14 00:11:10;;;;;;;4.93;4.00;;;11.40;99.90;;;;;;5109353;28;20694;-70
2023/05/14 00:13:37;;;;;;;4.90;3.87;;;11.30;99.90;;;;;;5109759;28;21235;-70
2023/05/14 00:16:04;;;;;;;6.37;4.40;;;11.30;99.90;;;;;;5109797;27;20660;-68
2023/05/14 00:18:31;;;;;;;4.30;3.20;;;11.30;99.90;;;;;;5109197;28;20963;-68
2023/05/14 00:20:58;;;;;;;6.53;4.20;;;11.30;99.90;;;;;;5109498;28;20645;-68
2023/05/14 00:23:25;;;;;;;5.07;3.70;;;11.40;99.90;;;;;;5109791;28;20950;-68
2023/05/14 00:25:53;;;;;;;3.70;3.20;;;11.40;99.90;;;;;;5109661;28;21061;-69
2023/05/14 00:28:20;;;;;;;4.80;4.40;;;11.40;99.90;;;;;;5107524;28;20725;-69
2023/05/14 00:30:47;;;;;;;4.90;3.90;;;11.40;99.90;;;;;;5098692;28;20665;-70
2023/05/14 00:33:14;;;;;;;5.00;3.73;;;11.40;99.90;;;;;;5107675;28;20653;-69
2023/05/14 00:35:40;;;;;;;4.93;4.33;;;11.40;99.90;;;;;;5104681;28;20650;-70
2023/05/14 00:38:07;;;;;;;3.43;3.13;;;11.40;99.90;;;;;;5103735;28;20632;-69
2023/05/14 00:40:34;;;;;;;5.47;3.97;;;11.30;99.90;;;;;;5107214;28;21201;-69
2023/05/14 00:43:03;;;;;;;6.73;4.03;;;11.20;99.90;;;;;;5106922;28;21075;-69
2023/05/14 00:45:30;;;;;;;7.17;4.47;;;11.20;99.90;;;;;;5101780;28;20650;-69
2023/05/14 00:47:57;;;;;;;3.50;3.10;;;11.20;99.90;;;;;;5103378;28;20636;-69
2023/05/14 00:50:24;;;;;;;5.77;4.10;;;11.20;99.90;;;;;;5108065;28;20663;-69
2023/05/14 00:52:51;;;;;;;4.40;3.83;;;11.20;99.90;;;;;;5106018;28;20652;-70
2023/05/14 00:55:19;;;;;;;6.47;3.73;;;11.20;99.90;;;;;;5108374;28;20634;-70
2023/05/14 00:57:46;;;;;;;5.17;3.87;;;11.00;99.90;;;;;;5108298;28;20632;-70
2023/05/14 01:00:15;;;;;;;7.90;4.10;;;11.10;99.90;;;;;;5103297;28;20625;-69
2023/05/14 01:02:42;;;;;;;8.20;5.30;;;11.00;99.90;;;;;;5105386;28;20633;-69
2023/05/14 01:05:09;;;;;;;5.00;3.43;;;11.00;99.90;;;;;;5108022;28;20613;-70
2023/05/14 01:07:46;;;;;;;4.50;3.60;;;11.00;99.90;;;;;;5106290;28;21023;-70
2023/05/14 01:10:17;;;;;;;4.53;3.50;;;11.10;99.90;;;;;;5108274;28;20610;-69
2023/05/14 01:12:52;;;;;;;4.40;3.43;;;11.10;99.90;;;;;;5107266;28;20629;-69
2023/05/14 01:15:23;;;;;;;4.27;2.93;;;10.90;99.90;;;;;;5104419;28;20652;-70
2023/05/14 01:17:56;;;;;;;4.43;3.77;;;10.90;99.90;;;;;;5103310;28;21036;-70
2023/05/14 01:20:26;;;;;;;5.00;3.50;;;10.90;99.90;;;;;;5108191;28;20741;-69
2023/05/14 01:22:54;;;;;;;4.00;3.43;;;10.80;99.90;;;;;;5107192;28;20630;-68
2023/05/14 01:25:21;;;;;;;3.50;3.20;;;10.80;99.90;;;;;;5107848;28;20649;-68
2023/05/14 01:27:56;;;;;;;5.60;3.83;;;10.70;99.90;;;;;;5103319;28;20630;-70
2023/05/14 01:30:31;;;;;;;4.00;3.27;;;10.70;99.90;;;;;;5106723;28;20716;-68
2023/05/14 01:33:00;;;;;;;3.43;2.70;;;10.60;99.90;;;;;;5103803;28;20678;-70
2023/05/14 01:35:29;;;;;;;4.53;4.17;;;10.60;99.90;;;;;;5108528;28;20654;-69
2023/05/14 01:38:00;;;;;;;3.80;3.43;;;10.60;99.90;;;;;;5108288;28;20972;-69
2023/05/14 01:40:28;;;;;;;5.27;4.77;;;10.60;99.90;;;;;;5107696;28;21030;-68
2023/05/14 01:42:56;;;;;;;6.33;4.40;;;10.50;99.90;;;;;;5108521;28;20687;-68
2023/05/14 01:45:24;;;;;;;3.13;2.73;;;10.40;99.90;;;;;;5108449;28;20686;-68
2023/05/14 01:47:53;;;;;;;4.60;3.50;;;10.30;99.90;;;;;;5107516;28;20680;-69
2023/05/14 01:50:22;;;;;;;3.30;3.10;;;10.30;99.90;;;;;;5105549;28;20618;-69
2023/05/14 01:52:52;;;;;;;2.70;2.50;;;10.20;99.90;;;;;;5107704;28;20745;-68
2023/05/14 01:55:21;;;;;;;6.40;4.13;;;10.20;99.90;;;;;;5105928;28;21538;-68
2023/05/14 01:57:48;;;;;;;4.20;3.60;;;10.20;99.90;;;;;;5106956;27;21205;-68
2023/05/14 02:00:16;;;;;;;6.40;4.37;;;10.10;99.90;;;;;;5107241;27;21190;-68
2023/05/14 02:02:42;;;;;;;4.47;2.97;;;10.10;99.90;;;;;;5113751;27;21120;-68
2023/05/14 02:05:11;;;;;;;5.07;3.10;;;10.10;99.90;;;;;;5115006;27;20624;-69
2023/05/14 02:07:40;;;;;;;4.57;3.70;;;10.20;99.90;;;;;;5110177;27;20616;-69
2023/05/14 02:10:09;;;;;;;4.23;3.80;;;10.10;99.90;;;;;;5108635;28;20647;-70
2023/05/14 02:12:38;;;;;;;3.40;2.90;;;10.10;99.90;;;;;;5112541;28;20660;-70
2023/05/14 02:15:05;;;;;;;7.53;3.90;;;10.10;99.90;;;;;;5114673;27;20744;-70
2023/05/14 02:17:32;;;;;;;7.00;4.07;;;10.20;99.90;;;;;;5110478;27;21045;-69
2023/05/14 02:19:59;;;;;;;4.50;4.10;;;10.20;99.90;;;;;;5107941;27;21189;-69
2023/05/14 02:22:26;;;;;;;3.93;3.53;;;10.10;99.90;;;;;;5111747;27;20763;-69
2023/05/14 02:24:52;;;;;;;3.90;3.40;;;10.10;99.90;;;;;;5114888;27;20982;-69
2023/05/14 02:27:20;;;;;;;4.70;3.67;;;10.10;99.90;;;;;;5113690;27;20664;-70
2023/05/14 02:29:48;;;;;;;6.13;3.50;;;10.00;99.90;;;;;;5107632;28;20997;-69
2023/05/14 02:32:16;;;;;;;3.67;3.47;;;10.00;99.90;;;;;;5113907;27;20750;-70
2023/05/14 02:34:44;;;;;;;4.30;3.90;;;10.00;99.90;;;;;;5109807;27;21015;-69
2023/05/14 02:37:11;;;;;;;4.50;4.03;;;10.10;99.90;;;;;;5106431;28;20735;-68
2023/05/14 02:39:39;;;;;;;3.80;3.13;;;10.10;99.90;;;;;;5113905;27;20626;-68
2023/05/14 02:42:07;;;;;;;5.72;4.65;;;10.10;99.90;;;;;;5113106;27;20763;-69
2023/05/14 02:44:35;;;;;;;4.67;4.27;;;10.10;99.90;;;;;;5114576;27;20210;-70
2023/05/14 02:47:03;;;;;;;4.53;4.10;;;10.20;99.90;;;;;;5114455;27;20647;-69
2023/05/14 02:49:31;;;;;;;5.80;4.17;;;10.20;99.90;;;;;;5112807;27;20731;-69
2023/05/14 02:51:59;;;;;;;3.87;3.50;;;10.30;99.90;;;;;;5114648;27;20633;-71
2023/05/14 02:54:27;;;;;;;6.47;4.40;;;10.30;99.90;;;;;;5106112;28;20649;-69
2023/05/14 02:56:53;;;;;;;4.33;4.00;;;10.30;99.90;;;;;;5113762;27;21050;-70
2023/05/14 02:59:22;;;;;;;5.28;4.45;;;10.30;99.90;;;;;;5113328;27;20747;-71
2023/05/14 03:01:49;;;;;;;5.70;4.13;;;10.30;99.90;;;;;;5114247;27;20237;-70
2023/05/14 03:04:19;;;;;;;4.50;4.10;;;10.30;99.90;;;;;;5114352;27;21264;-69
2023/05/14 03:06:46;;;;;;;5.93;4.63;;;10.20;99.90;;;;;;5110892;27;20645;-69
2023/05/14 03:09:14;;;;;;;7.13;4.63;;;10.10;99.90;;;;;;5110981;28;20625;-72
2023/05/14 03:11:41;;;;;;;5.83;4.30;;;10.20;99.90;;;;;;5108928;28;20643;-70
2023/05/14 03:14:08;;;;;;;4.95;4.07;;;10.30;99.90;;;;;;5110729;28;20795;-70
2023/05/14 03:16:35;;;;;;;6.30;4.87;;;10.20;99.90;;;;;;5111136;28;20235;-71
2023/05/14 03:19:02;;;;;;;5.23;3.87;;;10.20;99.90;;;;;;5110985;28;20629;-70
2023/05/14 03:21:31;;;;;;;4.27;3.83;;;10.20;99.90;;;;;;5110518;28;20698;-70
2023/05/14 03:23:57;;;;;;;8.23;4.10;;;10.20;99.90;;;;;;5102338;28;20628;-70
2023/05/14 03:26:24;;;;;;;4.60;4.17;;;10.20;99.90;;;;;;5110892;28;20721;-71
2023/05/14 03:28:51;;;;;;;5.93;4.87;;;10.30;99.90;;;;;;5110471;28;20733;-71
2023/05/14 03:31:18;;;;;;;3.60;3.20;;;10.30;99.90;;;;;;5110247;28;20740;-71
2023/05/14 03:33:45;;;;;;;7.47;4.80;;;10.30;99.90;;;;;;5110488;28;20629;-72
2023/05/14 03:36:12;;;;;;;4.53;3.60;;;10.40;99.90;;;;;;5110537;28;20640;-71
2023/05/14 03:38:41;;;;;;;5.17;3.97;;;10.40;99.90;;;;;;5110230;28;20983;-71
2023/05/14 03:41:09;;;;;;;5.23;4.10;;;10.40;99.90;;;;;;5109843;28;20657;-71
2023/05/14 03:43:36;;;;;;;7.07;4.60;;;10.40;99.90;;;;;;5110414;28;20730;-72
2023/05/14 03:46:03;;;;;;;3.47;3.17;;;10.50;99.90;;;;;;5110219;28;20660;-71
2023/05/14 03:48:30;;;;;;;4.13;3.20;;;10.70;99.90;;;;;;5110347;28;20631;-71
2023/05/14 03:50:57;;;;;;;4.13;3.73;;;10.50;99.90;;;;;;5108657;28;21265;-71
2023/05/14 03:53:24;;;;;;;6.70;5.03;;;10.50;99.90;;;;;;5110547;28;20623;-71
2023/05/14 03:55:52;;;;;;;3.63;3.13;;;10.50;99.90;;;;;;5110538;28;21284;-71
2023/05/14 03:58:19;;;;;;;7.27;5.30;;;10.40;99.90;;;;;;5110146;27;21168;-71
2023/05/14 04:00:46;;;;;;;6.30;4.43;;;10.30;99.90;;;;;;5109550;28;20984;-71
2023/05/14 04:03:12;;;;;;;5.97;5.23;;;10.30;99.90;;;;;;5109968;28;21042;-71
2023/05/14 04:05:39;;;;;;;4.97;4.57;;;10.20;99.90;;;;;;5109652;28;20637;-71
2023/05/14 04:08:06;;;;;;;4.37;3.23;;;10.20;99.90;;;;;;5110379;28;20618;-71
2023/05/14 04:10:33;;;;;;;5.73;3.53;;;10.20;99.90;;;;;;5109057;28;21206;-71
2023/05/14 04:13:01;;;;;;;4.40;3.10;;;10.20;99.90;;;;;;5110123;28;20635;-71
2023/05/14 04:15:28;;;;;;;5.33;3.63;;;10.20;99.90;;;;;;5109621;28;20669;-71
2023/05/14 04:17:54;;;;;;;5.17;4.67;;;10.20;99.90;;;;;;5109365;28;20627;-71
2023/05/14 04:20:21;;;;;;;4.93;3.77;;;10.20;99.90;;;;;;5108480;28;20632;-71
2023/05/14 04:22:48;;;;;;;4.20;3.83;;;10.30;99.90;;;;;;5109839;28;20728;-71
2023/05/14 04:25:17;;;;;;;6.07;3.27;;;10.30;99.90;;;;;;5109527;28;20625;-71
2023/05/14 04:27:43;;;;;;;4.80;4.13;;;10.30;99.90;;;;;;5109917;28;20621;-71
2023/05/14 04:30:12;;;;;;;6.20;4.60;;;10.20;99.90;;;;;;5108783;28;20621;-71
2023/05/14 04:32:39;;;;;;;5.70;4.57;;;10.20;99.90;;;;;;5109568;28;20633;-71
2023/05/14 04:35:08;;;;;;;4.17;3.70;;;10.20;99.90;;;;;;5100936;28;20718;-71
2023/05/14 04:37:34;;;;;;;6.60;5.27;;;10.30;99.90;;;;;;5109671;28;20629;-71
2023/05/14 04:40:01;;;;;;;4.20;3.80;;;10.30;99.90;;;;;;5108821;28;20653;-72
2023/05/14 04:42:28;;;;;;;5.40;4.03;;;10.30;99.90;;;;;;5109125;28;20650;-71
2023/05/14 04:44:55;;;;;;;4.60;4.20;;;10.30;99.90;;;;;;5109819;28;21192;-71
2023/05/14 04:47:23;;;;;;;4.30;3.20;;;10.20;99.90;;;;;;5108681;28;20652;-71
2023/05/14 04:49:50;;;;;;;5.53;3.60;;;10.20;99.90;;;;;;5108853;28;21093;-71
2023/05/14 04:52:17;;;;;;;3.57;2.80;;;10.30;99.90;;;;;;5108997;28;20688;-71
2023/05/14 04:54:43;;;;;;;4.87;4.33;;;10.20;99.90;;;;;;5109614;28;20824;-71
2023/05/14 04:57:10;;;;;;;5.97;4.00;;;10.20;99.90;;;;;;5108997;28;20740;-71
2023/05/14 04:59:37;;;;;;;7.00;3.47;;;10.20;99.90;;;;;;5108510;28;20665;-71
2023/05/14 05:02:04;;;;;;;7.43;4.00;;;10.20;99.90;;;;;;5109177;28;20811;-71
2023/05/14 05:04:32;;;;;;;11.80;4.13;;;10.20;99.90;;;;;;5109132;28;20629;-71
2023/05/14 05:06:59;;;;;;;3.73;3.43;;;10.20;99.90;;;;;;5109178;28;20648;-71
2023/05/14 05:09:25;;;;;;;4.27;3.87;;;10.20;99.90;;;;;;5108528;28;20635;-71
2023/05/14 05:11:52;;;;;;;4.07;3.53;;;10.20;99.90;;;;;;5108616;28;20655;-71
2023/05/14 05:14:19;;;;;;;7.80;3.43;;;10.20;99.90;;;;;;5108361;28;20629;-72
2023/05/14 05:16:46;;;;;;;5.37;4.83;;;10.20;99.90;;;;;;5108993;28;20643;-72
2023/05/14 05:19:13;;;;;;;4.50;3.07;;;10.20;99.90;;;;;;5108750;28;20641;-71
2023/05/14 05:21:41;;;;;;;5.47;4.97;;;10.20;99.90;;;;;;5108244;28;21025;-71
2023/05/14 05:24:08;;;;;;;3.13;2.53;;;10.20;99.90;;;;;;5108523;28;21249;-71
2023/05/14 05:26:36;;;;;;;5.37;4.87;;;10.10;99.90;;;;;;5108460;28;20656;-71
2023/05/14 05:29:03;;;;;;;5.00;3.50;;;10.20;99.90;;;;;;5107398;28;20603;-72
2023/05/14 05:31:30;;;;;;;3.40;3.10;;;10.30;99.90;;;;;;5108031;28;20683;-71
2023/05/14 05:33:57;;;;;;;4.23;3.90;;;10.30;99.90;;;;;;5108625;28;20623;-71
2023/05/14 05:36:24;;;;;;;5.07;4.40;;;10.40;99.90;;;;;;5108189;28;20764;-71
2023/05/14 05:38:52;;;;;;;4.77;4.27;;;10.40;99.90;;;;;;5108398;28;20634;-70
2023/05/14 05:41:18;;;;;;;4.37;3.97;;;10.50;99.90;;;;;;5107646;28;20660;-70
2023/05/14 05:43:45;;;;;;;5.23;4.70;;;10.50;99.90;;;;;;5108513;28;20625;-70
2023/05/14 05:46:12;;;;;;;6.10;4.70;;;10.50;99.90;;;;;;5107900;28;20639;-70
2023/05/14 05:48:39;;;;;;;8.50;4.37;;;10.50;99.90;;;;;;5108417;28;20629;-70
2023/05/14 05:51:06;;;;;;;5.17;4.67;;;10.60;99.90;;;;;;5106189;28;20653;-71
2023/05/14 05:53:32;;;;;;;4.87;3.90;;;10.60;99.90;;;;;;5108411;28;21181;-70
2023/05/14 05:56:00;;;;;;;3.90;3.37;;;10.60;99.90;;;;;;5107725;28;21212;-69
2023/05/14 05:58:27;;;;;;;5.47;3.90;;;10.60;99.90;;;;;;5108046;28;20636;-70
2023/05/14 06:00:56;;;;;;;5.03;4.40;;;10.60;99.90;;;;;;5107343;28;20661;-69
2023/05/14 06:03:23;;;;;;;6.47;3.57;;;10.70;99.90;;;;;;5108060;28;20729;-69
2023/05/14 06:05:51;;;;;;;4.10;2.90;;;10.60;99.90;;;;;;5108092;28;20648;-70
2023/05/14 06:08:18;;;;;;;5.07;4.33;;;10.60;99.90;;;;;;5108128;28;21398;-70
2023/05/14 06:10:44;;;;;;;7.63;3.47;;;10.70;99.90;;;;;;5107078;28;20668;-70
2023/05/14 06:13:13;;;;;;;10.40;4.37;;;10.70;99.90;;;;;;5107870;28;20667;-69
2023/05/14 06:15:39;;;;;;;4.13;3.73;;;10.70;99.90;;;;;;5107823;28;20700;-69
2023/05/14 06:18:06;;;;;;;4.17;3.77;;;10.70;99.90;;;;;;5107984;28;20628;-69
2023/05/14 06:20:33;;;;;;;4.60;4.13;;;10.80;99.90;;;;;;5107192;28;20649;-69
2023/05/14 06:23:00;;;;;;;4.37;3.63;;;10.80;99.90;;;;;;5107863;28;20617;-69
2023/05/14 06:25:27;;;;;;;3.87;3.47;;;10.90;99.90;;;;;;5107635;28;20648;-69
2023/05/14 06:27:53;;;;;;;5.47;4.07;;;10.90;99.90;;;;;;5107921;28;20618;-69
2023/05/14 06:30:22;;;;;;;6.30;4.20;;;10.90;99.90;;;;;;5107300;28;20631;-69
2023/05/14 06:32:48;;;;;;;4.90;4.27;;;10.70;99.90;;;;;;5107783;28;20976;-69
2023/05/14 06:35:15;;;;;;;3.40;3.20;;;10.70;99.90;;;;;;5107672;28;20649;-69
2023/05/14 06:37:42;;;;;;;7.03;3.93;;;10.70;99.90;;;;;;5107552;28;20619;-69
2023/05/14 06:40:10;;;;;;;3.20;2.90;;;10.60;99.90;;;;;;5107114;28;20623;-70
2023/05/14 06:42:36;;;;;;;5.10;3.67;;;10.80;99.90;;;;;;5111662;28;20617;-69
2023/05/14 06:45:04;;;;;;;4.50;4.10;;;11.00;99.90;;;;;;5111443;27;20636;-70
2023/05/14 06:47:32;;;;;;;5.50;3.80;;;11.00;99.90;;;;;;5111460;28;21453;-68
2023/05/14 06:50:00;;;;;;;5.27;3.57;;;11.10;99.90;;;;;;5110873;28;20634;-70
2023/05/14 06:52:27;;;;;;;6.20;4.33;;;11.10;99.90;;;;;;5111124;28;20646;-69
2023/05/14 06:54:54;;;;;;;6.03;4.50;;;11.20;99.90;;;;;;5111365;28;20629;-69
2023/05/14 06:57:21;;;;;;;4.27;3.47;;;11.20;99.90;;;;;;5111647;27;21038;-69
2023/05/14 06:59:47;;;;;;;4.47;3.27;;;11.20;99.90;;;;;;5110577;28;20630;-69
2023/05/14 07:02:14;;;;;;;7.13;4.00;;;11.20;99.90;;;;;;5111203;28;20641;-69
2023/05/14 07:04:42;;;;;;;5.33;4.83;;;11.20;99.90;;;;;;5111150;28;20627;-69
2023/05/14 07:07:14;;;;;;;6.40;4.43;;;11.20;99.90;;;;;;5111177;28;20646;-69
2023/05/14 07:09:41;;;;;;;3.60;2.80;;;11.30;99.90;;;;;;5101926;28;20637;-69
2023/05/14 07:12:08;;;;;;;4.23;3.67;;;11.30;99.90;;;;;;5110997;28;20630;-69
2023/05/14 07:14:35;;;;;;;7.00;4.40;;;11.40;99.90;;;;;;5111150;28;20665;-69
2023/05/14 07:17:01;;;;;;;4.07;3.33;;;11.60;99.90;;;;;;5110814;28;20665;-69
2023/05/14 07:19:29;;;;;;;6.87;4.50;;;11.50;99.90;;;;;;5110597;28;20720;-69
2023/05/14 07:21:57;;;;;;;3.83;3.50;;;11.60;99.90;;;;;;5110574;28;20651;-69
2023/05/14 07:24:24;;;;;;;5.13;3.63;;;11.60;99.90;;;;;;5111155;28;20625;-71
2023/05/14 07:26:50;;;;;;;6.23;3.20;;;11.60;99.90;;;;;;5110899;28;20657;-69
2023/05/14 07:29:17;;;;;;;4.03;3.50;;;11.60;99.90;;;;;;5110088;27;20627;-69
2023/05/14 07:31:44;;;;;;;5.43;4.60;;;11.70;99.90;;;;;;5110300;28;20664;-70
2023/05/14 07:34:11;;;;;;;6.57;4.50;;;11.80;99.90;;;;;;5110475;28;20683;-69
2023/05/14 07:36:38;;;;;;;5.60;4.10;;;11.90;99.90;;;;;;5110548;28;20669;-70
2023/05/14 07:39:06;;;;;;;6.07;3.50;;;12.10;99.90;;;;;;5110572;27;20625;-70
2023/05/14 07:41:33;;;;;;;6.93;4.50;;;12.20;99.90;;;;;;5109902;28;20640;-70
2023/05/14 07:44:00;;;;;;;8.50;5.13;;;12.30;99.90;;;;;;5110631;28;20632;-69
2023/05/14 07:46:27;;;;;;;4.00;3.60;;;12.50;99.90;;;;;;5110235;28;20646;-69
2023/05/14 07:48:54;;;;;;;8.20;4.77;;;12.60;99.90;;;;;;5110301;28;20628;-69
2023/05/14 07:51:21;;;;;;;8.63;4.20;;;12.70;99.90;;;;;;5100493;28;20686;-69
2023/05/14 07:53:48;;;;;;;7.50;4.00;;;12.80;99.90;;;;;;5109539;27;20699;-70
2023/05/14 07:56:16;;;;;;;6.23;4.60;;;12.80;99.90;;;;;;5110299;28;20777;-69
2023/05/14 07:58:43;;;;;;;4.17;3.73;;;12.70;99.90;;;;;;5110032;28;20619;-70
2023/05/14 08:01:11;;;;;;;5.70;4.80;;;12.70;99.90;;;;;;5109275;28;20675;-69
2023/05/14 08:03:38;;;;;;;5.33;3.90;;;12.90;99.90;;;;;;5109899;28;21028;-69
2023/05/14 08:06:05;;;;;;;6.67;4.73;;;12.90;99.90;;;;;;5110199;28;20642;-70
2023/05/14 08:08:32;;;;;;;3.80;3.10;;;13.00;99.90;;;;;;5109733;28;20727;-69
2023/05/14 08:10:59;;;;;;;6.37;4.07;;;12.80;99.90;;;;;;5109893;28;20644;-69
2023/05/14 08:13:27;;;;;;;4.00;3.70;;;13.20;99.90;;;;;;5109589;28;20720;-69
2023/05/14 08:15:53;;;;;;;6.60;4.40;;;13.30;99.90;;;;;;5109547;28;20671;-70
2023/05/14 08:18:20;;;;;;;5.30;4.40;;;13.20;99.90;;;;;;5110128;28;21157;-70
2023/05/14 08:20:47;;;;;;;6.60;4.57;;;13.10;99.90;;;;;;5108915;28;20654;-70
2023/05/14 08:23:14;;;;;;;6.60;3.50;;;13.00;99.90;;;;;;5109742;28;21184;-70
2023/05/14 08:25:41;;;;;;;4.93;4.43;;;13.00;99.90;;;;;;5109590;28;20644;-70
2023/05/14 08:28:07;;;;;;;5.80;3.10;;;13.00;99.90;;;;;;5109261;28;20615;-70
2023/05/14 08:30:36;;;;;;;4.00;3.40;;;12.90;99.90;;;;;;5108881;27;20655;-70
2023/05/14 08:33:02;;;;;;;4.40;3.87;;;12.90;99.90;;;;;;5101422;28;20616;-70
2023/05/14 08:35:29;;;;;;;5.73;3.97;;;12.80;99.90;;;;;;5109506;28;20653;-70
2023/05/14 08:37:56;;;;;;;4.30;3.90;;;12.90;99.90;;;;;;5109345;28;20623;-70
2023/05/14 08:40:23;;;;;;;5.20;3.30;;;13.10;99.90;;;;;;5108676;28;20623;-70
2023/05/14 08:42:51;;;;;;;5.67;3.50;;;13.10;99.90;;;;;;5109010;28;20615;-69
2023/05/14 08:45:20;;;;;;;5.80;4.60;;;13.30;99.90;;;;;;5109224;28;20723;-69
2023/05/14 08:47:49;;;;;;;4.67;3.70;;;13.50;99.90;;;;;;5109617;28;20623;-70
2023/05/14 08:50:17;;;;;;;4.20;3.90;;;13.50;99.90;;;;;;5106846;28;20619;-70
2023/05/14 08:52:44;;;;;;;4.47;4.10;;;13.70;99.90;;;;;;5108961;28;20621;-69
2023/05/14 08:55:12;;;;;;;4.70;3.40;;;13.80;99.90;;;;;;5108753;28;20971;-70
2023/05/14 08:57:39;;;;;;;4.90;3.53;;;13.90;99.90;;;;;;5109475;28;20731;-69
2023/05/14 09:00:10;;;;;;;9.33;4.97;;;14.20;99.90;;;;;;5108407;27;20617;-70
2023/05/14 09:02:38;;;;;;;4.67;3.90;;;14.50;99.90;;;;;;5108985;28;20629;-70
2023/05/14 09:05:08;;;;;;;3.10;2.80;;;14.80;99.90;;;;;;5107911;28;20621;-70
2023/05/14 09:07:35;;;;;;;4.07;3.33;;;15.00;99.90;;;;;;5108698;28;20978;-69
2023/05/14 09:10:03;;;;;;;6.57;3.53;;;15.20;99.90;;;;;;5108065;28;21131;-69
2023/05/14 09:12:30;;;;;;;4.73;3.17;;;15.50;99.90;;;;;;5108695;28;20621;-69
2023/05/14 09:14:57;;;;;;;5.63;3.77;;;15.60;99.90;;;;;;5108743;28;20980;-71
2023/05/14 09:17:26;;;;;;;4.33;3.23;;;15.60;99.90;;;;;;5108518;28;20707;-71
2023/05/14 09:19:53;;;;;;;7.43;5.13;;;15.70;99.90;;;;;;5108018;28;21205;-70
2023/05/14 09:22:21;;;;;;;10.07;6.33;;;15.50;99.90;;;;;;5108364;28;20653;-70
2023/05/14 09:25:02;;;;;;;4.03;3.37;;;15.50;99.90;;;;;;5108658;28;20632;-70
2023/05/14 09:27:30;;;;;;;5.90;4.50;;;15.70;99.90;;;;;;5108739;28;20630;-70
2023/05/14 09:30:04;;;;;;;5.40;4.07;;;15.60;99.90;;;;;;5107711;28;20659;-70
2023/05/14 09:32:36;;;;;;;4.47;4.00;;;15.60;99.90;;;;;;5108519;28;20642;-70
2023/05/14 09:35:15;;;;;;;4.30;3.90;;;15.60;99.90;;;;;;5107983;28;20622;-70
2023/05/14 09:37:45;;;;;;;5.77;4.13;;;15.40;99.90;;;;;;5108696;28;20799;-69
2023/05/14 09:40:12;;;;;;;5.17;4.40;;;15.50;99.90;;;;;;5107600;28;20610;-70
2023/05/14 09:42:39;;;;;;;4.93;4.30;;;15.60;99.90;;;;;;5108407;28;20660;-69
2023/05/14 09:45:08;;;;;;;4.50;3.83;;;15.80;99.30;;;;;;5107788;28;20637;-70
2023/05/14 09:47:35;;;;;;;4.67;4.23;;;16.00;99.00;;;;;;5108326;28;20629;-70
2023/05/14 09:50:02;;;;;;;4.70;4.10;;;16.00;98.70;;;;;;5106184;28;21251;-70
2023/05/14 09:52:29;;;;;;;4.30;4.00;;;16.10;98.60;;;;;;5108339;28;20658;-70
2023/05/14 09:54:58;;;;;;;5.37;3.57;;;16.30;98.40;;;;;;5108042;28;21180;-70
2023/05/14 09:57:25;;;;;;;5.10;3.60;;;16.30;97.70;;;;;;5108170;28;20687;-72
2023/05/14 09:59:52;;;;;;;3.37;2.43;;;15.70;97.90;;;;;;5106992;28;21035;-70
2023/05/14 10:02:24;;;;;;;7.83;3.67;;;15.60;98.50;;;;;;5108229;28;20732;-70
2023/05/14 10:04:53;;;;;;;4.30;3.27;;;15.90;98.80;;;;;;5108340;28;20618;-70
2023/05/14 10:07:23;;;;;;;4.90;4.43;;;15.90;98.00;;;;;;5108170;28;20639;-70
2023/05/14 10:09:57;;;;;;;4.00;2.67;;;15.80;98.70;;;;;;5107259;28;20610;-70
2023/05/14 10:12:32;;;;;;;4.33;3.93;;;15.80;98.90;;;;;;5107465;28;21212;-70
2023/05/14 10:15:03;;;;;;;3.27;2.97;;;15.90;97.70;;;;;;5108027;28;20622;-70
2023/05/14 10:17:34;;;;;;;2.30;2.10;;;16.10;97.00;;;;;;5112203;28;20662;-70
2023/05/14 10:20:03;;;;;;;5.83;3.57;;;16.20;96.40;;;;;;5111558;28;20630;-70
2023/05/14 10:22:34;;;;;;;3.10;2.80;;;16.20;96.50;;;;;;5111906;28;20630;-71
2023/05/14 10:25:02;;;;;;;5.13;3.87;;;16.20;97.10;;;;;;5111675;28;20654;-70
2023/05/14 10:27:31;;;;;;;3.50;3.20;;;16.20;97.60;;;;;;5112278;28;20643;-70
2023/05/14 10:29:58;;;;;;;3.50;3.10;;;16.10;97.50;;;;;;5111684;28;20618;-70
2023/05/14 10:32:26;;;;;;;6.77;4.70;;;16.00;97.50;;;;;;5111944;28;20766;-70
2023/05/14 10:34:53;;;;;;;8.33;6.60;;;16.10;97.30;;;;;;5111874;27;20625;-70
2023/05/14 10:37:22;;;;;;;3.83;3.53;;;16.10;97.60;;;;;;5111246;28;21241;-70
2023/05/14 10:39:51;;;;;;;6.27;4.10;;;16.10;97.90;;;;;;5111091;28;20623;-70
2023/05/14 10:42:19;;;;;;;4.63;3.07;;;16.20;97.20;;;;;;5111629;28;20998;-71
2023/05/14 10:44:53;;;;;;;3.20;2.90;;;16.40;96.20;;;;;;5111795;28;20615;-71
2023/05/14 10:47:20;;;;;;;4.20;3.23;;;16.40;96.00;;;;;;5103627;28;20689;-70
2023/05/14 10:49:48;;;;;;;3.60;3.30;;;16.60;96.60;;;;;;5109264;28;20615;-70
2023/05/14 10:52:19;;;;;;;2.33;2.13;;;16.40;96.80;;;;;;5111137;28;21214;-70
2023/05/14 10:54:51;;;;;;;3.20;2.53;;;16.60;96.80;;;;;;5111271;27;20618;-70
2023/05/14 10:57:18;;;;;;;2.70;2.47;;;16.50;96.10;;;;;;5111380;28;20663;-71
2023/05/14 10:59:46;;;;;;;3.43;3.00;;;16.60;97.20;;;;;;5110440;28;21179;-70
2023/05/14 11:02:22;;;;;;;3.80;3.50;;;17.00;97.30;;;;;;5111020;28;21295;-71
2023/05/14 11:04:57;;;;;;;3.40;3.10;;;17.10;96.80;;;;;;5111543;28;20615;-70
2023/05/14 11:07:27;;;;;;;5.97;4.80;;;17.10;95.60;;;;;;5111267;28;20643;-70
2023/05/14 11:09:59;;;;;;;3.47;3.13;;;16.90;96.10;;;;;;5110559;28;21231;-70
2023/05/14 11:12:27;;;;;;;2.77;2.57;;;17.00;96.10;;;;;;5111059;28;21008;-71
2023/05/14 11:14:54;;;;;;;2.77;2.57;;;17.40;95.00;;;;;;5110572;28;21010;-68
2023/05/14 11:17:23;;;;;;;3.73;3.13;;;18.00;93.80;;;;;;5111150;28;20856;-68
2023/05/14 11:19:49;;;;;;;3.30;3.00;;;18.10;94.10;;;;;;5102317;28;20615;-70
2023/05/14 11:22:16;;;;;;;3.17;2.97;;;18.10;94.60;;;;;;5111306;28;20672;-70
2023/05/14 11:24:43;;;;;;;4.10;3.53;;;18.00;93.80;;;;;;5110737;28;21068;-70
2023/05/14 11:27:10;;;;;;;4.03;3.63;;;17.90;93.80;;;;;;5109649;28;20745;-70
2023/05/14 11:29:38;;;;;;;3.70;3.10;;;17.40;94.40;;;;;;5110225;27;20635;-69
2023/05/14 11:32:06;;;;;;;5.83;3.90;;;17.20;95.40;;;;;;5110613;28;20705;-69
2023/05/14 11:34:35;;;;;;;4.60;3.70;;;17.20;94.70;;;;;;5111080;28;20627;-70
2023/05/14 11:37:04;;;;;;;4.13;3.63;;;17.30;94.90;;;;;;5110374;28;20748;-71
2023/05/14 11:39:31;;;;;;;3.47;3.17;;;17.30;95.30;;;;;;5109854;28;20615;-69
2023/05/14 11:41:58;;;;;;;3.93;3.50;;;17.20;95.40;;;;;;5110277;28;20644;-70
2023/05/14 11:44:25;;;;;;;4.23;3.67;;;17.50;95.50;;;;;;5110854;28;20619;-69
2023/05/14 11:46:56;;;;;;;5.77;3.90;;;18.20;95.00;;;;;;5110396;27;20661;-69
2023/05/14 11:49:23;;;;;;;4.00;3.13;;;18.30;93.70;;;;;;5108609;28;20639;-69
2023/05/14 11:51:57;;;;;;;3.53;3.23;;;18.10;92.40;;;;;;5110229;28;20647;-70
2023/05/14 11:54:26;;;;;;;2.97;2.53;;;18.10;93.40;;;;;;5101737;28;21038;-70
2023/05/14 11:56:54;;;;;;;3.67;2.67;;;18.90;94.00;;;;;;5110128;28;20664;-69
2023/05/14 11:59:21;;;;;;;3.00;2.70;;;19.50;92.80;;;;;;5109908;28;20616;-70
2023/05/14 12:01:48;;;;;;;3.10;2.83;;;21.20;91.20;;;;;;5110124;28;20697;-70
2023/05/14 12:04:17;;;;;;;4.30;3.90;;;21.90;89.40;;;;;;5110158;28;20628;-70
2023/05/14 12:06:45;;;;;;;3.43;3.13;;;22.50;84.50;;;;;;5110465;28;20650;-70
2023/05/14 12:09:16;;;;;;;3.90;3.37;;;22.10;84.50;;;;;;5109444;28;20627;-70
2023/05/14 12:11:43;;;;;;;4.80;3.77;;;20.90;86.60;;;;;;5101988;28;20660;-70
2023/05/14 12:14:16;;;;;;;4.83;3.83;;;20.40;85.30;;;;;;5110144;28;20993;-70
2023/05/14 12:16:44;;;;;;;4.50;4.10;;;19.70;87.40;;;;;;5109735;28;20647;-70
2023/05/14 12:19:13;;;;;;;3.83;3.40;;;19.20;90.20;;;;;;5109872;28;20616;-70
2023/05/14 12:21:42;;;;;;;5.70;5.03;;;18.80;90.70;;;;;;5108912;28;20647;-70
2023/05/14 12:24:11;;;;;;;3.40;3.10;;;18.80;91.10;;;;;;5109603;28;20632;-70
2023/05/14 12:26:44;;;;;;;4.47;4.07;;;18.50;90.50;;;;;;5109589;28;20640;-70
2023/05/14 12:29:13;;;;;;;3.83;3.43;;;18.20;90.80;;;;;;5109820;28;20616;-70
2023/05/14 12:31:45;;;;;;;3.67;3.40;;;18.10;91.50;;;;;;5108880;28;20700;-70
2023/05/14 12:34:12;;;;;;;5.77;4.67;;;17.90;92.00;;;;;;5109217;28;20616;-70
2023/05/14 12:36:39;;;;;;;3.90;3.47;;;17.90;92.10;;;;;;5109603;28;21007;-70
2023/05/14 12:39:06;;;;;;;3.37;3.07;;;17.80;92.30;;;;;;5100628;28;20616;-70
2023/05/14 12:41:33;;;;;;;4.20;3.33;;;18.10;92.60;;;;;;5108715;28;20640;-70
2023/05/14 12:44:03;;;;;;;3.60;3.30;;;18.80;91.10;;;;;;5109172;28;20630;-69
2023/05/14 12:46:30;;;;;;;3.60;3.30;;;18.30;91.90;;;;;;5109143;27;20759;-70
2023/05/14 12:48:57;;;;;;;4.20;2.67;;;18.30;91.30;;;;;;5109017;28;21243;-69